Time;durP1;ratioP1;P1;durP2;ratioP2;P2;SDS_P1;SDS_P2;PMS_P1;PMS_P2;Temp;Humidity;BMP_temperature;BMP_pressure;BME280_temperature;BME280_humidity;BME280_pressure;Samples;Min_cycle;Max_cycle;Signal;HPM_P1;HPM_P2
2022/05/09 00:10:53;;;;;;;;;;;;;;;;;;;;;
2022/05/09 00:32:27;;;;;;;;;;;18.20;99.90;;;;;;4767553;30;19922;-79
2022/05/09 00:53:39;;;;;;;;;;;18.20;99.90;;;;;;4826720;29;19966;-78
2022/05/09 02:20:48;;;;;;;;;;;;;;;;;;;;;
2022/05/09 02:26:31;;;;;;;;;;;;;;;;;;;;;
2022/05/09 03:00:35;;;;;;;;;;;;;;;;;;;;;
2022/05/09 03:28:24;;;;;;;;;;;18.40;99.90;;;;;;4786869;30;19924;-79
2022/05/09 03:37:34;;;;;;;;;;;18.40;99.90;;;;;;4771949;30;19957;-79
2022/05/09 03:40:31;;;;;;;;;;;18.50;99.90;;;;;;4842694;29;19992;-80
2022/05/09 04:17:57;;;;;;;;;;;18.30;99.90;;;;;;4852077;29;20482;-79
2022/05/09 04:29:54;;;;;;;;;;;18.50;99.90;;;;;;4919743;29;19925;-79
2022/05/09 04:33:04;;;;;;;;;;;18.50;99.90;;;;;;4916286;29;20497;-80
2022/05/09 05:06:26;;;;;;;;;;;18.90;99.90;;;;;;4848500;29;20268;-80
2022/05/09 05:11:57;;;;;;;;;;;19.00;99.90;;;;;;4847941;29;20058;-80
2022/05/09 05:14:26;;;;;;;;;;;19.00;99.90;;;;;;4865388;29;19938;-79
2022/05/09 05:17:18;;;;;;;;;;;;;;;;;;;;;
2022/05/09 05:19:53;;;;;;;;;;;19.20;99.90;;;;;;4996042;28;20016;-79
2022/05/09 05:22:19;;;;;;;;;;;19.20;99.90;;;;;;5016602;28;19925;-79
2022/05/09 05:25:04;;;;;;;;;;;19.10;99.90;;;;;;5002936;28;19921;-81
2022/05/09 05:27:54;;;;;;;;;;;19.10;99.90;;;;;;4997505;28;20299;-79
2022/05/09 05:30:49;;;;;;;;;;;;;;;;;;;;;
2022/05/09 06:04:13;;;;;;;;;;;19.90;99.90;;;;;;4764926;30;20507;-79
2022/05/09 06:10:15;;;;;;;;;;;;;;;;;;;;;
2022/05/09 06:12:53;;;;;;;;;;;20.10;99.90;;;;;;4761994;30;20023;-79
2022/05/09 06:21:39;;;;;;;;;;;20.10;99.90;;;;;;4898354;29;19960;-79
2022/05/09 06:33:49;;;;;;;;;;;;;;;;;;;;;
2022/05/09 06:45:26;;;;;;;;;;;20.10;99.90;;;;;;5003425;28;20267;-79
2022/05/09 06:47:56;;;;;;;;;;;20.00;99.90;;;;;;5021447;28;20016;-82
2022/05/09 06:50:26;;;;;;;;;;;19.90;99.90;;;;;;5019699;28;19918;-79
2022/05/09 06:53:26;;;;;;;;;;;19.90;99.90;;;;;;5025713;28;19925;-82
2022/05/09 06:59:02;;;;;;;;;;;19.90;99.90;;;;;;5014196;28;19937;-82
2022/05/09 07:01:48;;;;;;;;;;;19.90;99.90;;;;;;4999490;28;19917;-80
2022/05/09 07:10:41;;;;;;;;;;;20.00;99.90;;;;;;4921093;29;19934;-80
2022/05/09 07:22:19;;;;;;;;;;;20.20;99.90;;;;;;4870071;29;19926;-68
2022/05/09 07:24:45;;;;;;;;;;;20.30;99.90;;;;;;4957410;28;19925;-68
2022/05/09 07:27:10;;;;;;;;;;;20.30;99.90;;;;;;5010057;28;20517;-72
2022/05/09 07:29:37;;;;;;;;;;;20.40;99.90;;;;;;4993977;28;19918;-71
2022/05/09 07:32:05;;;;;;;;;;;20.60;99.90;;;;;;5015428;28;20375;-69
2022/05/09 07:34:51;;;;;;;;;;;20.80;99.90;;;;;;5013484;28;19921;-69
2022/05/09 07:37:17;;;;;;;;;;;21.20;99.90;;;;;;5009529;28;19917;-69
2022/05/09 07:40:05;;;;;;;;;;;21.60;99.90;;;;;;5010062;28;19917;-69
2022/05/09 07:42:34;;;;;;;;;;;21.50;99.90;;;;;;5009190;28;20387;-70
2022/05/09 07:45:22;;;;;;;;;;;21.50;99.90;;;;;;5016400;28;19914;-69
2022/05/09 07:47:55;;;;;;;;;;;21.70;99.90;;;;;;5017590;28;19967;-69
2022/05/09 07:50:26;;;;;;;;;;;21.60;99.90;;;;;;5024715;28;20445;-69
2022/05/09 07:52:52;;;;;;;;;;;21.40;99.90;;;;;;5016490;28;19921;-70
2022/05/09 07:55:28;;;;;;;;;;;21.40;99.90;;;;;;5013154;28;20004;-70
2022/05/09 07:57:54;;;;;;;;;;;21.40;99.90;;;;;;5011738;28;19914;-69
2022/05/09 08:00:20;;;;;;;;;;;21.40;99.90;;;;;;5013813;28;19914;-69
2022/05/09 08:02:45;;;;;;;;;;;21.40;99.90;;;;;;5004058;28;19941;-69
2022/05/09 08:05:11;;;;;;;;;;;21.40;99.90;;;;;;5009127;28;19913;-69
2022/05/09 08:07:37;;;;;;;;;;;21.50;99.90;;;;;;5009814;28;19917;-69
2022/05/09 08:10:06;;;;;;;;;;;21.60;99.90;;;;;;5004345;28;19914;-69
2022/05/09 08:12:45;;;;;;;;;;;21.50;99.90;;;;;;5008706;28;19918;-69
2022/05/09 08:15:12;;;;;;;;;;;21.40;99.90;;;;;;5005889;28;19913;-69
2022/05/09 08:17:38;;;;;;;;;;;21.30;99.90;;;;;;5010641;28;20011;-69
2022/05/09 08:20:26;;;;;;;;;;;21.30;99.90;;;;;;5009961;28;20018;-69
2022/05/09 08:23:06;;;;;;;;;;;21.30;99.90;;;;;;5012647;28;19920;-69
2022/05/09 08:25:41;;;;;;;;;;;21.40;99.90;;;;;;5010898;28;20360;-68
2022/05/09 08:31:20;;;;;;;;;;;21.60;99.90;;;;;;5016221;28;19916;-68
2022/05/09 08:33:56;;;;;;;;;;;21.70;99.90;;;;;;5015202;28;19918;-68
2022/05/09 08:39:09;;;;;;;;;;;21.70;99.90;;;;;;5018042;28;19933;-68
2022/05/09 08:41:37;;;;;;;;;;;22.10;99.90;;;;;;5017714;28;19909;-71
2022/05/09 08:44:27;;;;;;;;;;;22.40;99.90;;;;;;5024467;28;19913;-71
2022/05/09 08:47:11;;;;;;;;;;;22.60;99.90;;;;;;5019635;28;19990;-71
2022/05/09 08:49:46;;;;;;;;;;;22.60;99.90;;;;;;5017855;28;19917;-72
2022/05/09 08:52:15;;;;;;;;;;;22.80;99.90;;;;;;5017015;28;19936;-71
2022/05/09 08:58:00;;;;;;;;;;;22.80;99.90;;;;;;5013658;28;19999;-71
2022/05/09 09:00:29;;;;;;;;;;;22.90;99.90;;;;;;5015787;28;19914;-72
2022/05/09 09:03:14;;;;;;;;;;;23.00;99.90;;;;;;5019766;28;19920;-71
2022/05/09 09:05:40;;;;;;;;;;;22.90;99.90;;;;;;5013667;28;19914;-70
2022/05/09 09:08:24;;;;;;;;;;;23.00;99.90;;;;;;5014530;28;19918;-72
2022/05/09 09:11:08;;;;;;;;;;;23.20;99.90;;;;;;4995695;28;19910;-70
2022/05/09 09:13:42;;;;;;;;;;;23.10;99.90;;;;;;5016687;28;20402;-71
2022/05/09 09:16:15;;;;;;;;;;;23.00;99.90;;;;;;5016159;28;19910;-72
2022/05/09 09:18:54;;;;;;;;;;;23.00;99.90;;;;;;4996808;28;19932;-72
2022/05/09 09:21:20;;;;;;;;;;;22.70;99.90;;;;;;5026956;28;19980;-71
2022/05/09 09:26:50;;;;;;;;;;;22.70;99.90;;;;;;4993631;28;19944;-74
2022/05/09 09:29:18;;;;;;;;;;;23.00;99.90;;;;;;5014619;28;19913;-71
2022/05/09 09:31:59;;;;;;;;;;;23.00;99.90;;;;;;5016812;28;19920;-71
2022/05/09 09:34:38;;;;;;;;;;;22.90;99.90;;;;;;5020627;28;20686;-70
2022/05/09 09:37:18;;;;;;;;;;;22.70;99.90;;;;;;5010147;28;20378;-71
2022/05/09 09:39:44;;;;;;;;;;;22.70;99.90;;;;;;5013880;28;19913;-71
2022/05/09 09:42:10;;;;;;;;;;;23.10;99.90;;;;;;4992882;28;19914;-71
2022/05/09 09:44:38;;;;;;;;;;;23.20;99.90;;;;;;5015417;28;20349;-71
2022/05/09 09:47:27;;;;;;;;;;;23.30;99.90;;;;;;5009894;28;20045;-70
2022/05/09 09:50:12;;;;;;;;;;;23.30;99.90;;;;;;5013782;28;19928;-72
2022/05/09 09:52:45;;;;;;;;;;;23.40;99.90;;;;;;4993832;28;19922;-70
2022/05/09 09:55:20;;;;;;;;;;;23.30;99.90;;;;;;5018582;28;19921;-71
2022/05/09 09:57:48;;;;;;;;;;;23.40;99.90;;;;;;5014723;28;19913;-70
2022/05/09 10:00:19;;;;;;;;;;;23.60;99.90;;;;;;5014076;28;19914;-73
2022/05/09 10:02:49;;;;;;;;;;;23.60;99.90;;;;;;5015560;28;19910;-71
2022/05/09 10:05:16;;;;;;;;;;;23.80;99.90;;;;;;4997203;28;20307;-72
2022/05/09 10:07:44;;;;;;;;;;;23.90;99.90;;;;;;5017560;28;19921;-70
2022/05/09 10:10:23;;;;;;;;;;;24.00;99.90;;;;;;5016281;28;19920;-73
2022/05/09 10:12:51;;;;;;;;;;;23.90;99.90;;;;;;5013061;28;19924;-71
2022/05/09 10:15:26;;;;;;;;;;;24.00;99.90;;;;;;5016414;28;19921;-70
2022/05/09 10:17:52;;;;;;;;;;;24.10;99.90;;;;;;5002522;28;19909;-71
2022/05/09 10:20:28;;;;;;;;;;;24.00;99.90;;;;;;5021085;28;19936;-71
2022/05/09 10:26:13;;;;;;;;;;;23.60;99.90;;;;;;5005676;28;20051;-71
2022/05/09 10:28:44;;;;;;;;;;;23.80;99.90;;;;;;5022029;28;19949;-75
2022/05/09 10:31:25;;;;;;;;;;;24.00;99.90;;;;;;5015770;28;19921;-71
2022/05/09 10:33:59;;;;;;;;;;;23.80;99.90;;;;;;5008540;28;19918;-72
2022/05/09 10:36:31;;;;;;;;;;;23.90;99.90;;;;;;5013462;28;20153;-70
2022/05/09 10:39:03;;;;;;;;;;;24.10;99.90;;;;;;5015260;28;19918;-70
2022/05/09 10:41:40;;;;;;;;;;;24.20;99.90;;;;;;5011116;28;19920;-71
2022/05/09 10:44:15;;;;;;;;;;;24.20;99.90;;;;;;5012527;28;20015;-70
2022/05/09 10:46:51;;;;;;;;;;;24.20;99.90;;;;;;5016194;28;19979;-73
2022/05/09 10:49:21;;;;;;;;;;;24.00;99.90;;;;;;5011313;28;19925;-71
2022/05/09 10:51:49;;;;;;;;;;;23.80;99.90;;;;;;5009556;28;19984;-70
2022/05/09 10:54:39;;;;;;;;;;;23.90;99.90;;;;;;5009935;28;19921;-71
2022/05/09 10:57:14;;;;;;;;;;;24.00;99.90;;;;;;5013687;28;19913;-71
2022/05/09 10:59:41;;;;;;;;;;;24.20;99.90;;;;;;5008713;28;19946;-71
2022/05/09 11:02:12;;;;;;;;;;;24.20;99.90;;;;;;4996080;28;19917;-70
2022/05/09 11:04:39;;;;;;;;;;;24.20;99.90;;;;;;5008858;28;19960;-71
2022/05/09 11:07:23;;;;;;;;;;;24.10;99.90;;;;;;5013651;28;19965;-71
2022/05/09 11:09:51;;;;;;;;;;;24.00;99.90;;;;;;5009410;28;19914;-71
2022/05/09 11:12:20;;;;;;;;;;;24.00;99.90;;;;;;5012964;28;19917;-70
2022/05/09 11:15:06;;;;;;;;;;;24.00;99.90;;;;;;5014791;28;19913;-71
2022/05/09 11:17:37;;;;;;;;;;;24.00;99.90;;;;;;5014722;28;19976;-72
2022/05/09 11:20:22;;;;;;;;;;;24.10;99.90;;;;;;5012761;28;19920;-72
2022/05/09 11:23:25;;;;;;;;;;;24.10;99.90;;;;;;5013231;28;19925;-69
2022/05/09 11:25:57;;;;;;;;;;;24.10;99.90;;;;;;5012900;28;19925;-71
2022/05/09 11:28:30;;;;;;;;;;;24.30;99.90;;;;;;5012839;28;19914;-72
2022/05/09 11:31:04;;;;;;;;;;;24.50;99.90;;;;;;5012891;28;19917;-72
2022/05/09 11:33:46;;;;;;;;;;;24.70;99.90;;;;;;5014436;28;19917;-72
2022/05/09 11:36:32;;;;;;;;;;;24.80;99.90;;;;;;5011909;28;19909;-72
2022/05/09 11:39:02;;;;;;;;;;;24.60;99.90;;;;;;5013361;28;19920;-70
2022/05/09 11:41:41;;;;;;;;;;;24.50;99.90;;;;;;5009880;28;19914;-72
2022/05/09 11:44:18;;;;;;;;;;;24.60;99.90;;;;;;5022797;28;20012;-71
2022/05/09 11:47:02;;;;;;;;;;;24.30;99.90;;;;;;5012600;28;20055;-72
2022/05/09 11:49:33;;;;;;;;;;;24.20;99.90;;;;;;5018056;28;19913;-72
2022/05/09 11:52:01;;;;;;;;;;;24.00;99.90;;;;;;5011098;28;19914;-71
2022/05/09 11:54:30;;;;;;;;;;;23.90;99.90;;;;;;5014781;28;19917;-72
2022/05/09 11:56:59;;;;;;;;;;;23.80;99.90;;;;;;4997103;28;19918;-72
2022/05/09 11:59:26;;;;;;;;;;;23.60;99.90;;;;;;5016441;28;19913;-71
2022/05/09 12:01:57;;;;;;;;;;;23.50;99.90;;;;;;5004628;28;20418;-70
2022/05/09 12:04:40;;;;;;;;;;;23.50;99.90;;;;;;4999408;28;19932;-71
2022/05/09 12:07:22;;;;;;;;;;;23.50;99.90;;;;;;5020124;28;20360;-71
2022/05/09 12:10:17;;;;;;;;;;;23.60;99.90;;;;;;4995530;28;19917;-72
2022/05/09 12:12:43;;;;;;;;;;;23.80;99.90;;;;;;5016241;28;20430;-71
2022/05/09 12:15:29;;;;;;;;;;;24.00;99.90;;;;;;4995374;28;19944;-71
2022/05/09 12:17:58;;;;;;;;;;;24.30;99.90;;;;;;4994037;28;19913;-71
2022/05/09 12:20:42;;;;;;;;;;;24.40;99.90;;;;;;5006890;28;19938;-71
2022/05/09 12:23:31;;;;;;;;;;;24.50;99.90;;;;;;5011866;28;19953;-71
2022/05/09 12:26:07;;;;;;;;;;;24.50;99.90;;;;;;5010993;28;19925;-71
2022/05/09 12:28:36;;;;;;;;;;;24.20;99.90;;;;;;5009261;28;19921;-71
2022/05/09 12:31:21;;;;;;;;;;;24.20;99.90;;;;;;5011049;28;19914;-71
2022/05/09 12:34:13;;;;;;;;;;;24.20;99.90;;;;;;5014663;28;19918;-71
2022/05/09 12:36:48;;;;;;;;;;;24.20;99.90;;;;;;5001109;28;19914;-72
2022/05/09 12:39:15;;;;;;;;;;;24.20;99.90;;;;;;5017261;28;19921;-72
2022/05/09 12:41:52;;;;;;;;;;;24.20;99.90;;;;;;5016426;28;19948;-71
2022/05/09 12:44:23;;;;;;;;;;;24.30;99.90;;;;;;4996710;28;20006;-71
2022/05/09 12:47:08;;;;;;;;;;;24.30;99.90;;;;;;5010169;28;20032;-74
2022/05/09 12:49:37;;;;;;;;;;;24.10;99.90;;;;;;5015311;28;19920;-72
2022/05/09 12:52:03;;;;;;;;;;;24.00;99.90;;;;;;5015306;28;19984;-71
2022/05/09 12:54:29;;;;;;;;;;;23.90;99.90;;;;;;5018153;28;19920;-72
2022/05/09 12:56:59;;;;;;;;;;;23.70;99.90;;;;;;4995696;28;19921;-69
2022/05/09 12:59:51;;;;;;;;;;;23.40;99.90;;;;;;5012658;28;19914;-71
2022/05/09 13:02:34;;;;;;;;;;;23.20;99.90;;;;;;4914463;29;19919;-71
2022/05/09 13:04:59;;;;;;;;;;;22.50;99.90;;;;;;5012896;28;20319;-71
2022/05/09 13:07:31;;;;;;;;;;;22.10;99.90;;;;;;5009062;28;19913;-70
2022/05/09 13:09:58;;;;;;;;;;;22.00;99.90;;;;;;5016090;28;19918;-71
2022/05/09 13:12:42;;;;;;;;;;;22.10;99.90;;;;;;5011993;28;19917;-71
2022/05/09 13:15:09;;;;;;;;;;;22.20;99.90;;;;;;5010346;28;19917;-72
2022/05/09 13:17:39;;;;;;;;;;;22.30;99.90;;;;;;5012624;28;19914;-71
2022/05/09 13:20:16;;;;;;;;;;;22.40;99.90;;;;;;5006701;28;20041;-73
2022/05/09 13:22:45;;;;;;;;;;;22.60;99.90;;;;;;5013556;28;19993;-72
2022/05/09 13:28:16;;;;;;;;;;;22.90;99.90;;;;;;4986751;28;20004;-72
2022/05/09 13:33:53;;;;;;;;;;;23.30;99.90;;;;;;5006575;28;19917;-72
2022/05/09 13:36:20;;;;;;;;;;;23.50;99.90;;;;;;5016336;28;19921;-73
2022/05/09 13:38:47;;;;;;;;;;;23.70;99.90;;;;;;4998866;28;19924;-72
2022/05/09 13:41:20;;;;;;;;;;;23.90;99.90;;;;;;5017222;28;19957;-72
2022/05/09 13:43:47;;;;;;;;;;;23.80;99.90;;;;;;5014020;28;19925;-72
2022/05/09 13:46:16;;;;;;;;;;;23.20;99.90;;;;;;4995751;28;19913;-71
2022/05/09 13:48:46;;;;;;;;;;;23.00;99.90;;;;;;5013606;28;19914;-74
2022/05/09 13:51:11;;;;;;;;;;;22.90;99.90;;;;;;5011836;28;19914;-72
2022/05/09 13:53:38;;;;;;;;;;;23.00;99.90;;;;;;5008073;28;19925;-72
2022/05/09 13:56:08;;;;;;;;;;;22.90;99.90;;;;;;5022718;28;19921;-72
2022/05/09 13:58:34;;;;;;;;;;;22.90;99.90;;;;;;5008055;28;19920;-72
2022/05/09 14:01:01;;;;;;;;;;;22.90;99.90;;;;;;5017654;28;19956;-72
2022/05/09 14:03:34;;;;;;;;;;;22.70;99.90;;;;;;5010791;28;19921;-70
2022/05/09 14:06:04;;;;;;;;;;;22.60;99.90;;;;;;5009421;28;19972;-71
2022/05/09 14:08:31;;;;;;;;;;;22.50;99.90;;;;;;4996283;28;19914;-72
2022/05/09 14:11:02;;;;;;;;;;;22.50;99.90;;;;;;5015284;28;19929;-71
2022/05/09 14:13:28;;;;;;;;;;;22.60;99.90;;;;;;5013901;28;19921;-72
2022/05/09 14:16:03;;;;;;;;;;;22.80;99.90;;;;;;5025352;28;19971;-71
2022/05/09 14:18:33;;;;;;;;;;;22.90;99.90;;;;;;5011920;28;19913;-71
2022/05/09 14:21:13;;;;;;;;;;;23.00;99.90;;;;;;5014293;28;19936;-71
2022/05/09 14:23:39;;;;;;;;;;;23.00;99.90;;;;;;5012815;28;20067;-72
2022/05/09 14:32:04;;;;;;;;;;;;;;;;;;;;;
2022/05/09 14:34:36;;;;;;;;;;;22.90;99.90;;;;;;5011366;28;19918;-72
2022/05/09 14:37:17;;;;;;;;;;;22.60;99.90;;;;;;5015054;28;19915;-75
2022/05/09 14:39:44;;;;;;;;;;;22.50;99.90;;;;;;5014352;28;19919;-71
2022/05/09 14:42:18;;;;;;;;;;;22.40;99.90;;;;;;5010870;28;19914;-71
2022/05/09 14:44:51;;;;;;;;;;;22.30;99.90;;;;;;5015200;28;19945;-74
2022/05/09 14:47:31;;;;;;;;;;;22.30;99.90;;;;;;5011615;28;19913;-72
2022/05/09 14:50:10;;;;;;;;;;;22.20;99.90;;;;;;4997173;28;19917;-72
2022/05/09 14:52:48;;;;;;;;;;;22.30;99.90;;;;;;5011215;28;20327;-71
2022/05/09 14:58:07;;;;;;;;;;;22.30;99.90;;;;;;5012012;28;19923;-72
2022/05/09 15:00:36;;;;;;;;;;;22.10;99.90;;;;;;5014206;28;19913;-72
2022/05/09 15:03:06;;;;;;;;;;;22.10;99.90;;;;;;5011956;28;19919;-72
2022/05/09 15:05:33;;;;;;;;;;;22.00;99.90;;;;;;5013622;28;20391;-71
2022/05/09 15:07:59;;;;;;;;;;;22.00;99.90;;;;;;5011895;28;19913;-71
2022/05/09 15:10:50;;;;;;;;;;;21.80;99.90;;;;;;5015720;28;20751;-71
2022/05/09 15:13:18;;;;;;;;;;;21.70;99.90;;;;;;5015866;28;19924;-71
2022/05/09 15:15:45;;;;;;;;;;;21.50;99.90;;;;;;4995196;28;19914;-72
2022/05/09 15:18:14;;;;;;;;;;;21.50;99.90;;;;;;5006517;28;21257;-72
2022/05/09 15:20:39;;;;;;;;;;;21.60;99.90;;;;;;5014177;28;20002;-72
2022/05/09 15:23:05;;;;;;;;;;;21.70;99.90;;;;;;5019248;28;20395;-72
2022/05/09 15:25:31;;;;;;;;;;;21.80;99.90;;;;;;5013467;28;19921;-72
2022/05/09 15:27:57;;;;;;;;;;;22.00;99.90;;;;;;5013633;28;20422;-72
2022/05/09 15:31:06;;;;;;;;;;;22.10;99.90;;;;;;4996839;28;19913;-72
2022/05/09 15:33:24;;;;;;;;;;;22.30;99.90;;;;;;5008783;28;19960;-72
2022/05/09 15:36:06;;;;;;;;;;;22.40;99.90;;;;;;5015103;28;19961;-71
2022/05/09 15:39:08;;;;;;;;;;;22.10;99.90;;;;;;5013333;28;19920;-71
2022/05/09 15:41:40;;;;;;;;;;;21.90;99.90;;;;;;4971685;28;19922;-72
2022/05/09 15:44:26;;;;;;;;;;;21.60;99.90;;;;;;4973066;28;20244;-72
2022/05/09 15:46:57;;;;;;;;;;;21.50;99.90;;;;;;4956510;28;19921;-72
2022/05/09 15:52:47;;;;;;;;;;;21.60;99.90;;;;;;4956027;28;19918;-72
2022/05/09 15:55:25;;;;;;;;;;;21.50;99.90;;;;;;4964289;28;20646;-72
2022/05/09 16:00:56;;;;;;;;;;;21.80;99.90;;;;;;4965498;28;20423;-72
2022/05/09 16:03:26;;;;;;;;;;;21.90;99.90;;;;;;5004060;28;20387;-72
2022/05/09 16:11:24;;;;;;;;;;;22.10;99.90;;;;;;5011004;28;19944;-72
2022/05/09 16:13:51;;;;;;;;;;;22.10;99.90;;;;;;5010993;28;19918;-72
2022/05/09 16:16:35;;;;;;;;;;;22.10;99.90;;;;;;5016112;28;19921;-73
2022/05/09 16:19:12;;;;;;;;;;;22.20;99.90;;;;;;5013437;28;19918;-72
2022/05/09 16:21:37;;;;;;;;;;;22.30;99.90;;;;;;5011883;28;20600;-72
2022/05/09 16:24:32;;;;;;;;;;;22.20;99.90;;;;;;5013973;28;19919;-72
2022/05/09 16:26:59;;;;;;;;;;;22.20;99.90;;;;;;4984581;28;19914;-72
2022/05/09 16:29:34;;;;;;;;;;;22.10;99.90;;;;;;5015767;28;19913;-71
2022/05/09 16:32:00;;;;;;;;;;;22.10;99.90;;;;;;4997525;28;19918;-72
2022/05/09 16:35:07;;;;;;;;;;;22.00;99.90;;;;;;5014925;28;19960;-72
2022/05/09 16:37:37;;;;;;;;;;;22.00;99.90;;;;;;4957764;28;20387;-72
2022/05/09 16:40:23;;;;;;;;;;;21.90;99.90;;;;;;4966979;28;19922;-72
2022/05/09 16:42:51;;;;;;;;;;;22.00;99.90;;;;;;4969761;28;19971;-72
2022/05/09 16:45:21;;;;;;;;;;;22.00;99.90;;;;;;4976869;28;19918;-72
2022/05/09 16:48:18;;;;;;;;;;;;;;;;;;;;;
2022/05/09 16:50:44;;;;;;;;;;;21.60;99.90;;;;;;5018204;28;19976;-71
2022/05/09 16:53:29;;;;;;;;;;;21.20;99.90;;;;;;5019890;28;19964;-72
2022/05/09 16:55:58;;;;;;;;;;;20.90;99.90;;;;;;5020558;28;19928;-72
2022/05/09 16:58:24;;;;;;;;;;;20.80;99.90;;;;;;5004093;28;19897;-72
2022/05/09 17:00:50;;;;;;;;;;;20.90;99.90;;;;;;5021473;28;19965;-71
2022/05/09 17:03:16;;;;;;;;;;;21.00;99.90;;;;;;5014733;28;19922;-72
2022/05/09 17:05:42;;;;;;;;;;;21.10;99.90;;;;;;5015223;28;19921;-72
2022/05/09 17:08:11;;;;;;;;;;;21.10;99.90;;;;;;5016400;28;19916;-72
2022/05/09 17:10:48;;;;;;;;;;;21.20;99.90;;;;;;5022358;28;20331;-72
2022/05/09 17:13:17;;;;;;;;;;;21.20;99.90;;;;;;5000705;28;19933;-72
2022/05/09 17:15:46;;;;;;;;;;;21.10;99.90;;;;;;5021400;28;20035;-71
2022/05/09 17:18:12;;;;;;;;;;;20.90;99.90;;;;;;5030022;28;19924;-72
2022/05/09 17:20:41;;;;;;;;;;;20.80;99.90;;;;;;4998210;28;19925;-72
2022/05/09 17:23:07;;;;;;;;;;;20.80;99.90;;;;;;5012047;28;19926;-73
2022/05/09 17:25:44;;;;;;;;;;;20.80;99.90;;;;;;5022555;28;19988;-72
2022/05/09 17:28:11;;;;;;;;;;;20.70;99.90;;;;;;5016725;28;20594;-71
2022/05/09 17:30:37;;;;;;;;;;;20.60;99.90;;;;;;5011609;28;19957;-73
2022/05/09 17:33:03;;;;;;;;;;;20.60;99.90;;;;;;5015991;28;19921;-72
2022/05/09 17:38:39;;;;;;;;;;;20.30;99.90;;;;;;5019240;28;20005;-72
2022/05/09 17:41:10;;;;;;;;;;;20.30;99.90;;;;;;5002501;28;19913;-72
2022/05/09 17:43:36;;;;;;;;;;;20.20;99.90;;;;;;5015595;28;19910;-72
2022/05/09 17:46:02;;;;;;;;;;;20.20;99.90;;;;;;5015917;28;20014;-72
2022/05/09 17:48:27;;;;;;;;;;;20.10;99.90;;;;;;5015290;28;19910;-72
2022/05/09 17:50:53;;;;;;;;;;;20.00;99.90;;;;;;5012492;28;20361;-72
2022/05/09 17:53:21;;;;;;;;;;;20.00;99.90;;;;;;5012395;28;19959;-72
2022/05/09 17:55:52;;;;;;;;;;;20.00;99.90;;;;;;5014554;28;19917;-72
2022/05/09 17:58:20;;;;;;;;;;;20.00;99.90;;;;;;5014929;28;19913;-72
2022/05/09 18:00:46;;;;;;;;;;;19.90;99.90;;;;;;5013303;28;19913;-72
2022/05/09 18:03:15;;;;;;;;;;;19.90;99.90;;;;;;5013529;28;20386;-71
2022/05/09 18:05:40;;;;;;;;;;;19.90;99.90;;;;;;5011740;28;19917;-72
2022/05/09 18:08:07;;;;;;;;;;;19.90;99.90;;;;;;5024149;28;19983;-74
2022/05/09 18:10:35;;;;;;;;;;;19.80;99.90;;;;;;5003170;28;19913;-72
2022/05/09 18:13:03;;;;;;;;;;;19.70;99.90;;;;;;5019705;28;19925;-72
2022/05/09 18:15:34;;;;;;;;;;;19.80;99.90;;;;;;5013855;28;20339;-73
2022/05/09 18:18:05;;;;;;;;;;;19.70;99.90;;;;;;5013742;28;21114;-72
2022/05/09 18:20:31;;;;;;;;;;;19.60;99.90;;;;;;5014999;28;19988;-72
2022/05/09 18:23:01;;;;;;;;;;;19.50;99.90;;;;;;5010223;28;19946;-72
2022/05/09 18:25:41;;;;;;;;;;;19.40;99.90;;;;;;5010289;28;19921;-72
2022/05/09 18:28:08;;;;;;;;;;;19.20;99.90;;;;;;5015613;28;19909;-72
2022/05/09 18:30:35;;;;;;;;;;;19.10;99.90;;;;;;5027522;28;19919;-72
2022/05/09 18:33:01;;;;;;;;;;;19.00;99.90;;;;;;5015165;28;19921;-72
2022/05/09 18:35:29;;;;;;;;;;;18.90;99.90;;;;;;4997232;28;20413;-79
2022/05/09 18:37:56;;;;;;;;;;;18.80;99.90;;;;;;5016470;28;19909;-78
2022/05/09 18:40:23;;;;;;;;;;;18.80;99.90;;;;;;5004831;28;19932;-78
2022/05/09 18:42:55;;;;;;;;;;;18.70;99.90;;;;;;5010094;28;20002;-80
2022/05/09 18:45:21;;;;;;;;;;;18.60;99.90;;;;;;5022872;28;20057;-78
2022/05/09 18:47:46;;;;;;;;;;;18.60;99.90;;;;;;5018217;28;19988;-80
2022/05/09 18:53:00;;;;;;;;;;;18.40;99.90;;;;;;5014722;28;19927;-77
2022/05/09 18:55:28;;;;;;;;;;;18.30;99.90;;;;;;5013682;28;19909;-79
2022/05/09 18:57:55;;;;;;;;;;;18.40;99.90;;;;;;5007258;28;19913;-77
2022/05/09 19:00:28;;;;;;;;;;;18.30;99.90;;;;;;5021035;28;19918;-78
2022/05/09 19:03:04;;;;;;;;;;;18.20;99.90;;;;;;4998677;28;19929;-78
2022/05/09 19:05:59;;;;;;;;;;;18.30;99.90;;;;;;5013298;28;19913;-77
2022/05/09 19:08:32;;;;;;;;;;;18.30;99.90;;;;;;5018294;28;19948;-78
2022/05/09 19:11:03;;;;;;;;;;;18.20;99.90;;;;;;5005115;28;20311;-77
2022/05/09 19:13:34;;;;;;;;;;;18.20;99.90;;;;;;5018523;28;19942;-79
2022/05/09 19:15:59;;;;;;;;;;;18.20;99.90;;;;;;5019015;28;19992;-81
2022/05/09 19:18:29;;;;;;;;;;;18.30;99.90;;;;;;5014741;28;20360;-79
2022/05/09 19:20:55;;;;;;;;;;;18.30;99.90;;;;;;5014297;28;19913;-79
2022/05/09 19:23:23;;;;;;;;;;;18.40;99.90;;;;;;5015801;28;19957;-79
2022/05/09 19:25:51;;;;;;;;;;;18.40;99.90;;;;;;5014653;28;19921;-80
2022/05/09 19:28:19;;;;;;;;;;;18.60;99.90;;;;;;5014548;28;19925;-79
2022/05/09 19:30:46;;;;;;;;;;;19.00;99.90;;;;;;5013784;28;19921;-79
2022/05/09 19:33:17;;;;;;;;;;;19.10;99.90;;;;;;5013213;28;19913;-79
2022/05/09 19:35:46;;;;;;;;;;;19.10;99.90;;;;;;5009559;28;20061;-78
2022/05/09 19:38:12;;;;;;;;;;;19.30;99.90;;;;;;4994194;28;19909;-79
2022/05/09 19:40:38;;;;;;;;;;;19.40;99.90;;;;;;5012793;28;19913;-79
2022/05/09 19:43:05;;;;;;;;;;;19.30;99.90;;;;;;4999507;28;19964;-80
2022/05/09 19:45:34;;;;;;;;;;;19.30;99.90;;;;;;5013882;28;19913;-79
2022/05/09 19:48:05;;;;;;;;;;;19.20;99.90;;;;;;5012889;28;20006;-78
2022/05/09 19:50:40;;;;;;;;;;;19.10;99.90;;;;;;5010962;28;19909;-79
2022/05/09 19:56:02;;;;;;;;;;;18.90;99.90;;;;;;5014609;28;20437;-79
2022/05/09 20:01:43;;;;;;;;;;;18.80;99.90;;;;;;4977509;28;20371;-78
2022/05/09 20:04:14;;;;;;;;;;;18.70;99.90;;;;;;5011902;28;19918;-78
2022/05/09 20:06:48;;;;;;;;;;;18.70;99.90;;;;;;5014207;28;19914;-79
2022/05/09 20:09:16;;;;;;;;;;;18.80;99.90;;;;;;5011139;28;20390;-78
2022/05/09 20:11:42;;;;;;;;;;;18.60;99.90;;;;;;5012411;28;19913;-78
2022/05/09 20:14:11;;;;;;;;;;;18.60;99.90;;;;;;5014832;28;20063;-77
2022/05/09 20:16:39;;;;;;;;;;;18.60;99.90;;;;;;5016561;28;20291;-77
2022/05/09 20:19:08;;;;;;;;;;;18.60;99.90;;;;;;5021892;28;19913;-77
2022/05/09 20:21:37;;;;;;;;;;;18.60;99.90;;;;;;5021395;28;19937;-77
2022/05/09 20:24:03;;;;;;;;;;;18.50;99.90;;;;;;5021657;28;19918;-78
2022/05/09 20:32:33;;;;;;;;;;;18.70;99.90;;;;;;5025129;28;20029;-78
2022/05/09 20:35:03;;;;;;;;;;;18.70;99.90;;;;;;5018907;28;19933;-79
2022/05/09 20:37:30;;;;;;;;;;;18.50;99.90;;;;;;5026187;28;20529;-80
2022/05/09 20:40:04;;;;;;;;;;;18.40;99.90;;;;;;5023019;28;19914;-77
2022/05/09 20:42:35;;;;;;;;;;;18.30;99.90;;;;;;5035339;28;19945;-77
2022/05/09 20:45:07;;;;;;;;;;;18.20;99.90;;;;;;5029405;28;19952;-81
2022/05/09 20:47:35;;;;;;;;;;;18.10;99.90;;;;;;5018253;28;19973;-79
2022/05/09 20:50:12;;;;;;;;;;;18.00;99.90;;;;;;5003987;28;19949;-77
2022/05/09 20:52:41;;;;;;;;;;;18.10;99.90;;;;;;5035095;28;19914;-77
2022/05/09 20:55:08;;;;;;;;;;;18.10;99.90;;;;;;5028501;28;19949;-79
2022/05/09 20:57:38;;;;;;;;;;;18.00;99.90;;;;;;5028784;28;19957;-77
2022/05/09 21:00:13;;;;;;;;;;;17.90;99.90;;;;;;5028198;28;19952;-80
2022/05/09 21:02:44;;;;;;;;;;;17.80;99.90;;;;;;5017082;28;19936;-79
2022/05/09 21:05:29;;;;;;;;;;;;;;;;;;;;;
2022/05/09 21:07:55;;;;;;;;;;;18.00;99.90;;;;;;5027022;28;19957;-78
2022/05/09 21:10:21;;;;;;;;;;;18.20;99.90;;;;;;5017055;28;20850;-79
2022/05/09 21:12:47;;;;;;;;;;;18.30;99.90;;;;;;5018275;28;19925;-80
2022/05/09 21:15:13;;;;;;;;;;;18.20;99.90;;;;;;5020139;28;20414;-77
2022/05/09 21:17:39;;;;;;;;;;;18.20;99.90;;;;;;5013002;28;19913;-77
2022/05/09 21:20:22;;;;;;;;;;;18.10;99.90;;;;;;5028863;28;19973;-77
2022/05/09 21:22:51;;;;;;;;;;;18.00;99.90;;;;;;5010586;28;19968;-78
2022/05/09 21:25:23;;;;;;;;;;;17.80;99.90;;;;;;5020902;28;19972;-78
2022/05/09 21:27:53;;;;;;;;;;;17.70;99.90;;;;;;5022354;28;19913;-79
2022/05/09 21:30:19;;;;;;;;;;;17.60;99.90;;;;;;5002274;28;20001;-78
2022/05/09 21:32:44;;;;;;;;;;;17.50;99.90;;;;;;5018836;28;19972;-78
2022/05/09 21:35:16;;;;;;;;;;;17.50;99.90;;;;;;5010302;28;19913;-81
2022/05/09 21:37:42;;;;;;;;;;;17.50;99.90;;;;;;5015058;28;19913;-80
2022/05/09 21:44:38;;;;;;;;;;;;;;;;;;;;;
2022/05/09 21:50:07;;;;;;;;;;;17.30;99.90;;;;;;4917769;29;19940;-79
2022/05/09 22:05:18;;;;;;;;;;;17.30;99.90;;;;;;4874293;29;19924;-77
2022/05/09 22:08:20;;;;;;;;;;;17.20;99.90;;;;;;4941288;29;19938;-77
2022/05/09 22:17:22;;;;;;;;;;;17.20;99.90;;;;;;4958089;29;20295;-79
2022/05/09 22:20:39;;;;;;;;;;;;;;;;;;;;;
2022/05/09 22:23:27;;;;;;;;;;;17.10;99.90;;;;;;4982894;28;20000;-76
2022/05/09 22:47:50;;;;;;;;;;;;;;;;;;;;;